Terminal Aerodrome Forecast
Issued by NWS Twin Cities, MN

Home | Current Version | Previous Version | Text Only | Print | Product List | Glossary Off
Versions: 1 2 3 4 5 6 7 8 9 10 11 12 13 14 15 16 17

000
FTUS43 KMPX 252300
TAFEAU
TAF
KEAU 252338Z 2600/2624 25006KT P6SM SCT100 BKN250
     FM260400 29004KT P6SM SCT100 SCT250
     FM261500 32007KT P6SM SCT040 SCT250=

USA.gov is the U.S. government's official web portal to all federal, state and local government web resources and services.